Time;durP1;ratioP1;P1;durP2;ratioP2;P2;SDS_P1;SDS_P2;PMS_P1;PMS_P2;Temp;Humidity;BMP_temperature;BMP_pressure;BME280_temperature;BME280_humidity;BME280_pressure;Samples;Min_cycle;Max_cycle;Signal;HPM_P1;HPM_P2
2023/10/31 00:00:59;;;;;;;3.75;2.33;;;;;;;13.29;71.31;99637.41;5127289;27;20071;-69
2023/10/31 00:03:27;;;;;;;4.03;2.10;;;;;;;13.27;71.32;99634.16;5129199;27;20045;-69
2023/10/31 00:05:54;;;;;;;2.78;2.42;;;;;;;13.24;71.06;99642.78;5127315;27;20048;-69
2023/10/31 00:08:24;;;;;;;3.90;2.00;;;;;;;13.26;71.24;99648.72;5123959;27;20077;-69
2023/10/31 00:10:51;;;;;;;4.32;2.13;;;;;;;13.25;71.32;99652.50;5121777;27;20044;-69
2023/10/31 00:13:19;;;;;;;4.22;1.80;;;;;;;13.23;71.11;99652.78;5127468;27;20079;-68
2023/10/31 00:15:47;;;;;;;4.00;1.92;;;;;;;13.24;71.28;99654.41;5127191;27;20076;-68
2023/10/31 00:18:16;;;;;;;4.35;2.00;;;;;;;13.23;71.16;99654.66;5127897;27;20058;-69
2023/10/31 00:20:44;;;;;;;5.43;2.33;;;;;;;13.22;70.92;99661.13;5126034;27;20408;-69
2023/10/31 00:23:12;;;;;;;4.18;1.85;;;;;;;13.20;70.97;99660.59;5124848;27;20059;-69
2023/10/31 00:25:40;;;;;;;5.78;1.60;;;;;;;13.18;71.07;99657.34;5122069;27;20044;-69
2023/10/31 00:28:07;;;;;;;5.57;1.92;;;;;;;13.17;70.94;99651.16;5121400;28;20043;-69
2023/10/31 00:30:35;;;;;;;3.22;1.90;;;;;;;12.99;71.16;99630.88;5125252;27;20040;-69
2023/10/31 00:33:03;;;;;;;3.53;2.10;;;;;;;13.16;70.93;99659.47;5125734;27;20048;-69
2023/10/31 00:35:32;;;;;;;5.78;1.77;;;;;;;13.15;71.17;99665.94;5127958;27;20112;-69
2023/10/31 00:38:00;;;;;;;4.47;1.60;;;;;;;13.15;70.93;99661.38;5121543;27;20066;-69
2023/10/31 00:40:28;;;;;;;7.78;1.83;;;;;;;13.14;70.95;99659.75;5119976;27;20046;-69
2023/10/31 00:42:58;;;;;;;7.05;2.47;;;;;;;13.14;71.23;99664.34;5127157;27;20059;-69
2023/10/31 00:45:25;;;;;;;5.90;2.35;;;;;;;13.15;71.23;99671.34;5125071;27;20044;-69
2023/10/31 00:47:53;;;;;;;5.75;2.00;;;;;;;13.15;71.05;99682.13;5131177;27;20065;-69
2023/10/31 00:50:21;;;;;;;6.25;1.70;;;;;;;13.15;71.26;99676.75;5127154;27;20036;-69
2023/10/31 00:52:50;;;;;;;3.05;1.67;;;;;;;13.14;71.39;99675.13;5121494;28;20068;-69
2023/10/31 00:55:18;;;;;;;3.53;1.38;;;;;;;13.14;71.17;99680.50;5120765;27;20520;-69
2023/10/31 00:57:46;;;;;;;4.70;2.50;;;;;;;13.13;71.65;99682.41;5131149;27;20052;-69
2023/10/31 01:00:15;;;;;;;4.05;1.90;;;;;;;13.12;71.17;99680.78;5129683;27;20040;-69
2023/10/31 01:02:43;;;;;;;3.03;1.95;;;;;;;13.09;71.42;99683.19;5122774;27;20137;-69
2023/10/31 01:05:11;;;;;;;5.72;2.60;;;;;;;13.01;71.63;99674.56;5121830;27;20065;-69
2023/10/31 01:07:39;;;;;;;7.85;2.92;;;;;;;13.11;71.82;99689.13;5124536;27;20077;-69
2023/10/31 01:10:10;;;;;;;5.78;3.63;;;;;;;13.11;71.69;99698.03;5125122;27;20079;-69
2023/10/31 01:12:38;;;;;;;7.88;4.47;;;;;;;13.10;71.80;99693.72;5119522;27;20043;-69
2023/10/31 01:15:06;;;;;;;8.05;4.00;;;;;;;13.02;71.52;99700.44;5119383;27;20111;-69
2023/10/31 01:17:34;;;;;;;7.53;4.07;;;;;;;13.09;71.30;99699.38;5126184;27;20126;-69
2023/10/31 01:20:02;;;;;;;7.45;4.70;;;;;;;13.09;71.77;99696.69;5122825;27;20061;-69
2023/10/31 01:22:30;;;;;;;11.68;6.05;;;;;;;13.09;71.27;99702.91;5127224;27;20051;-69
2023/10/31 01:24:58;;;;;;;9.18;5.38;;;;;;;13.09;71.51;99707.47;5123671;27;20100;-69
2023/10/31 01:27:27;;;;;;;10.38;5.22;;;;;;;13.02;71.46;99691.56;5127836;28;20048;-69
2023/10/31 01:29:55;;;;;;;9.68;5.53;;;;;;;13.05;71.91;99704.50;5117708;28;20123;-69
2023/10/31 01:32:23;;;;;;;9.50;5.50;;;;;;;13.03;71.96;99704.78;5123721;27;20046;-68
2023/10/31 01:34:50;;;;;;;10.48;6.55;;;;;;;13.05;71.99;99715.28;5124748;27;20114;-68
2023/10/31 01:37:20;;;;;;;10.18;6.88;;;;;;;13.06;72.00;99710.72;5122484;27;20039;-68
2023/10/31 01:39:49;;;;;;;8.98;5.95;;;;;;;13.00;71.87;99705.31;5126541;28;20096;-68
2023/10/31 01:42:18;;;;;;;10.35;6.85;;;;;;;13.02;71.94;99705.84;5115241;28;20070;-68
2023/10/31 01:44:47;;;;;;;8.77;6.75;;;;;;;13.03;71.72;99709.34;5129376;28;20055;-68
2023/10/31 01:47:15;;;;;;;11.88;8.43;;;;;;;13.02;71.95;99713.94;5119976;28;20055;-68
2023/10/31 01:49:42;;;;;;;10.98;7.10;;;;;;;13.02;71.66;99721.22;5124098;28;20064;-68
2023/10/31 01:52:10;;;;;;;11.35;7.97;;;;;;;13.01;71.56;99709.63;5123817;28;20141;-68
2023/10/31 01:54:38;;;;;;;11.88;8.15;;;;;;;13.00;71.81;99712.59;5126210;28;20043;-68
2023/10/31 01:57:05;;;;;;;10.43;7.15;;;;;;;12.98;71.58;99715.53;5131592;28;20047;-68
2023/10/31 01:59:33;;;;;;;11.90;7.40;;;;;;;12.99;71.99;99717.16;5127756;28;20480;-68
2023/10/31 02:02:04;;;;;;;10.02;7.18;;;;;;;12.99;71.65;99717.16;5128233;28;20095;-68
2023/10/31 02:04:32;;;;;;;9.25;7.22;;;;;;;12.98;71.54;99722.81;5121184;28;20476;-68
2023/10/31 02:07:00;;;;;;;10.63;7.22;;;;;;;12.86;72.26;99709.56;5123676;28;20077;-68
2023/10/31 02:09:29;;;;;;;10.88;7.43;;;;;;;12.96;72.16;99730.38;5123396;28;20134;-69
2023/10/31 02:11:57;;;;;;;10.98;6.75;;;;;;;12.97;72.15;99727.41;5120585;28;20047;-68
2023/10/31 02:14:25;;;;;;;10.77;6.43;;;;;;;12.96;71.83;99722.28;5126495;28;20100;-68
2023/10/31 02:16:53;;;;;;;9.07;6.47;;;;;;;12.95;72.04;99712.56;5114380;28;20043;-68
2023/10/31 02:19:22;;;;;;;12.98;7.95;;;;;;;12.95;71.79;99713.38;5128561;28;20054;-68
2023/10/31 02:21:51;;;;;;;12.82;7.80;;;;;;;12.96;71.79;99716.88;5119463;28;20430;-68
2023/10/31 02:24:19;;;;;;;12.48;7.28;;;;;;;12.94;72.20;99717.16;5117711;28;20048;-68
2023/10/31 02:26:47;;;;;;;11.65;7.60;;;;;;;12.96;72.22;99714.19;5123721;28;20137;-68
2023/10/31 02:29:15;;;;;;;12.05;7.28;;;;;;;12.96;72.22;99719.59;5122396;28;20039;-68
2023/10/31 02:31:42;;;;;;;14.48;8.48;;;;;;;12.94;72.15;99717.16;5124185;28;20040;-68
2023/10/31 02:34:10;;;;;;;12.60;8.00;;;;;;;12.96;71.99;99714.19;5118527;28;20047;-68
2023/10/31 02:36:38;;;;;;;13.90;7.65;;;;;;;12.94;72.22;99714.44;5118383;28;20084;-68
2023/10/31 02:39:07;;;;;;;12.07;6.88;;;;;;;12.95;72.13;99720.66;5119945;28;20101;-69
2023/10/31 02:41:35;;;;;;;13.02;7.43;;;;;;;12.95;71.95;99715.25;5123027;27;20047;-69
2023/10/31 02:44:03;;;;;;;10.68;7.38;;;;;;;12.95;71.99;99724.16;5117114;27;20047;-69
2023/10/31 02:46:31;;;;;;;12.27;9.07;;;;;;;12.96;72.09;99727.66;5123871;27;20100;-69
2023/10/31 02:48:59;;;;;;;11.57;7.90;;;;;;;12.94;71.68;99724.44;5120354;27;20051;-69
2023/10/31 02:51:26;;;;;;;12.48;9.48;;;;;;;12.93;72.01;99729.00;5123331;27;20112;-69
2023/10/31 02:53:54;;;;;;;11.73;7.78;;;;;;;12.88;72.32;99720.91;5120429;27;20604;-69
2023/10/31 02:56:25;;;;;;;14.73;8.35;;;;;;;12.92;72.22;99731.97;5125433;27;20048;-69
2023/10/31 02:58:53;;;;;;;12.50;8.63;;;;;;;12.87;71.96;99730.06;5127939;27;20138;-69
2023/10/31 03:01:21;;;;;;;12.07;8.68;;;;;;;12.93;71.91;99734.41;5122445;27;20040;-69
2023/10/31 03:03:48;;;;;;;12.95;9.70;;;;;;;12.93;72.21;99747.06;5130843;27;20123;-68
2023/10/31 03:06:16;;;;;;;16.02;9.30;;;;;;;12.92;71.88;99745.47;5123594;27;20057;-69
2023/10/31 03:08:44;;;;;;;12.32;8.48;;;;;;;12.91;72.35;99752.72;5119966;27;20051;-68
2023/10/31 03:11:22;;;;;;;11.73;8.60;;;;;;;12.86;72.16;99743.81;5119131;27;20040;-68
2023/10/31 03:13:51;;;;;;;13.45;10.05;;;;;;;12.90;71.82;99753.00;5123933;27;20059;-68
2023/10/31 03:16:19;;;;;;;12.48;9.52;;;;;;;12.90;71.99;99761.09;5119949;27;20142;-68
2023/10/31 03:18:47;;;;;;;13.02;8.88;;;;;;;12.89;72.30;99767.56;5125097;27;20052;-68
2023/10/31 03:21:16;;;;;;;14.38;9.55;;;;;;;12.87;72.48;99767.00;5118539;27;20044;-68
2023/10/31 03:23:47;;;;;;;12.90;8.98;;;;;;;12.88;71.95;99771.31;5123682;27;20076;-68
2023/10/31 03:26:15;;;;;;;15.63;9.85;;;;;;;12.85;71.97;99771.84;5124117;27;20059;-68
2023/10/31 03:28:44;;;;;;;14.07;8.82;;;;;;;12.83;72.06;99772.13;5124139;27;20115;-68
2023/10/31 03:31:14;;;;;;;14.73;9.88;;;;;;;12.83;71.92;99774.81;5124065;27;20044;-68
2023/10/31 03:33:42;;;;;;;17.88;10.10;;;;;;;12.83;72.18;99782.09;5122481;27;20050;-68
2023/10/31 03:36:10;;;;;;;11.15;8.80;;;;;;;12.82;72.16;99778.59;5120412;27;20104;-68
2023/10/31 03:38:38;;;;;;;13.00;9.57;;;;;;;12.83;72.15;99790.19;5122343;28;20040;-68
2023/10/31 03:41:06;;;;;;;13.95;9.25;;;;;;;12.82;71.77;99789.38;5125271;27;20051;-68
2023/10/31 03:43:35;;;;;;;12.00;9.52;;;;;;;12.82;71.96;99791.25;5116822;27;20069;-68
2023/10/31 03:46:02;;;;;;;13.48;8.85;;;;;;;12.82;72.41;99800.16;5127502;27;20055;-68
2023/10/31 03:48:32;;;;;;;13.73;9.10;;;;;;;12.79;72.09;99791.78;5120828;27;20059;-68
2023/10/31 03:50:59;;;;;;;12.40;8.75;;;;;;;12.80;72.17;99802.31;5117172;27;20068;-68
2023/10/31 03:53:27;;;;;;;14.13;8.15;;;;;;;12.78;72.12;99807.13;5127016;27;20047;-68
2023/10/31 03:55:55;;;;;;;12.68;8.60;;;;;;;12.79;72.51;99806.06;5124844;27;20055;-68
2023/10/31 03:58:23;;;;;;;11.95;8.68;;;;;;;12.78;72.36;99814.41;5122201;27;20047;-69
2023/10/31 04:00:51;;;;;;;13.15;8.88;;;;;;;12.79;72.18;99824.94;5123778;27;20047;-69
2023/10/31 04:03:19;;;;;;;12.43;8.15;;;;;;;12.79;72.51;99818.75;5120970;28;20096;-68
2023/10/31 04:05:48;;;;;;;11.98;8.00;;;;;;;12.78;71.93;99817.94;5119636;27;20077;-68
2023/10/31 04:08:16;;;;;;;12.55;8.43;;;;;;;12.77;72.44;99824.41;5119012;27;20055;-68
2023/10/31 04:10:44;;;;;;;12.32;8.23;;;;;;;12.77;72.09;99829.78;5117947;27;20046;-68
2023/10/31 04:13:12;;;;;;;11.77;8.07;;;;;;;12.76;72.05;99830.84;5122653;27;20040;-68
2023/10/31 04:15:40;;;;;;;9.82;7.80;;;;;;;12.75;72.15;99828.41;5121219;28;20133;-67
2023/10/31 04:18:08;;;;;;;10.50;7.50;;;;;;;12.72;72.58;99832.44;5123970;27;20073;-68
2023/10/31 04:20:35;;;;;;;10.48;7.55;;;;;;;12.72;72.31;99835.16;5125448;27;20126;-68
2023/10/31 04:23:05;;;;;;;9.07;6.80;;;;;;;12.74;72.03;99837.59;5118306;27;20036;-68
2023/10/31 04:25:33;;;;;;;9.20;6.35;;;;;;;12.73;72.05;99841.34;5123977;27;20074;-68
2023/10/31 04:28:01;;;;;;;9.70;6.60;;;;;;;12.74;72.33;99851.88;5113619;27;20109;-68
2023/10/31 04:30:29;;;;;;;7.22;5.78;;;;;;;12.73;72.09;99855.63;5116945;28;20039;-68
2023/10/31 04:32:56;;;;;;;8.32;5.63;;;;;;;12.73;72.30;99850.25;5120675;28;20882;-67
2023/10/31 04:35:24;;;;;;;9.15;5.82;;;;;;;12.73;72.48;99852.94;5119535;27;20102;-68
2023/10/31 04:37:52;;;;;;;7.80;5.80;;;;;;;12.75;72.02;99866.97;5114009;27;20048;-68
2023/10/31 04:40:22;;;;;;;7.10;5.50;;;;;;;12.74;72.40;99864.53;5122622;27;20067;-68
2023/10/31 04:42:49;;;;;;;8.43;5.53;;;;;;;12.63;72.12;99847.50;5118621;27;20070;-68
2023/10/31 04:45:18;;;;;;;8.50;5.70;;;;;;;12.75;72.01;99876.94;5120199;28;20055;-68
2023/10/31 04:47:45;;;;;;;9.60;6.05;;;;;;;12.75;72.07;99874.25;5115248;28;20047;-68
2023/10/31 04:50:14;;;;;;;7.60;5.38;;;;;;;12.72;72.33;99880.97;5116777;27;20048;-69
2023/10/31 04:52:42;;;;;;;7.45;5.65;;;;;;;12.65;72.51;99867.72;5116472;27;20097;-69
2023/10/31 04:55:10;;;;;;;6.55;5.30;;;;;;;12.73;72.22;99882.59;5118041;28;20183;-68
2023/10/31 04:57:39;;;;;;;6.75;5.30;;;;;;;12.74;72.48;99880.72;5118265;27;20040;-69
2023/10/31 05:00:08;;;;;;;8.32;5.50;;;;;;;12.75;72.33;99891.25;5119766;27;20502;-69
2023/10/31 05:02:36;;;;;;;7.70;5.28;;;;;;;12.73;72.37;99888.00;5116873;27;20047;-68
2023/10/31 05:05:04;;;;;;;9.85;6.30;;;;;;;12.73;72.15;99892.56;5117162;28;20051;-69
2023/10/31 05:07:32;;;;;;;6.82;5.60;;;;;;;12.70;72.38;99886.63;5120904;27;20062;-69
2023/10/31 05:10:01;;;;;;;7.55;5.72;;;;;;;12.70;72.19;99897.41;5115979;28;20187;-69
2023/10/31 05:12:29;;;;;;;6.75;4.82;;;;;;;12.70;72.41;99891.22;5117375;27;20058;-69
2023/10/31 05:14:58;;;;;;;9.90;6.35;;;;;;;12.70;72.35;99896.59;5120102;27;20047;-69
2023/10/31 05:17:25;;;;;;;7.20;6.00;;;;;;;12.69;72.49;99903.06;5112855;28;20043;-69
2023/10/31 05:19:53;;;;;;;8.00;6.57;;;;;;;12.68;72.12;99899.56;5112432;27;20132;-69
2023/10/31 05:22:21;;;;;;;7.88;5.95;;;;;;;12.67;72.71;99897.13;5120467;27;20468;-69
2023/10/31 05:24:52;;;;;;;8.90;6.85;;;;;;;12.68;72.62;99909.53;5117869;28;20074;-69
2023/10/31 05:27:20;;;;;;;8.57;6.80;;;;;;;12.68;72.45;99898.75;5119590;27;20108;-69
2023/10/31 05:29:48;;;;;;;7.35;6.13;;;;;;;12.66;71.99;99890.91;5118269;28;20043;-69
2023/10/31 05:32:17;;;;;;;7.75;6.00;;;;;;;12.52;72.54;99876.25;5119147;28;20092;-69
2023/10/31 05:34:45;;;;;;;9.07;6.70;;;;;;;12.66;72.31;99903.59;5112731;28;20047;-67
2023/10/31 05:37:12;;;;;;;8.25;5.90;;;;;;;12.66;72.49;99903.59;5113910;28;20078;-69
2023/10/31 05:39:40;;;;;;;10.15;6.03;;;;;;;12.66;72.13;99896.31;5117617;28;20039;-70
2023/10/31 05:42:08;;;;;;;8.25;6.10;;;;;;;12.65;72.34;99902.75;5115004;28;20048;-68
2023/10/31 05:44:36;;;;;;;8.35;6.15;;;;;;;12.65;72.14;99908.16;5119598;28;20055;-68
2023/10/31 05:47:04;;;;;;;8.05;6.63;;;;;;;12.66;72.65;99906.28;5111229;28;20059;-68
2023/10/31 05:49:34;;;;;;;9.27;6.90;;;;;;;12.66;72.20;99915.19;5112796;28;20102;-69
2023/10/31 05:52:01;;;;;;;6.50;5.70;;;;;;;12.65;72.52;99908.16;5117215;28;20048;-69
2023/10/31 05:54:29;;;;;;;7.90;6.18;;;;;;;12.66;72.63;99914.38;5114625;28;20055;-69
2023/10/31 05:56:57;;;;;;;7.68;6.30;;;;;;;12.62;72.29;99915.94;5132460;28;20477;-68
2023/10/31 05:59:25;;;;;;;9.15;6.38;;;;;;;12.65;72.11;99926.22;5133791;28;20043;-68
2023/10/31 06:01:53;;;;;;;7.65;6.07;;;;;;;12.63;72.40;99931.88;5120071;28;20115;-63
2023/10/31 06:04:20;;;;;;;9.73;5.95;;;;;;;12.63;72.51;99931.88;5121152;28;20050;-69
2023/10/31 06:06:50;;;;;;;6.63;4.97;;;;;;;12.64;72.45;99938.88;5119553;28;20070;-69
2023/10/31 06:09:17;;;;;;;7.28;5.35;;;;;;;12.64;72.43;99946.16;5125498;28;20054;-69
2023/10/31 06:11:45;;;;;;;6.15;5.18;;;;;;;12.63;72.31;99939.94;5126510;28;20043;-69
2023/10/31 06:14:13;;;;;;;6.78;5.30;;;;;;;12.62;72.44;99956.38;5117929;28;20043;-69
2023/10/31 06:16:42;;;;;;;8.85;5.72;;;;;;;12.62;72.44;99956.38;5130984;27;20054;-69
2023/10/31 06:19:11;;;;;;;6.57;4.82;;;;;;;12.62;72.11;99953.69;5125467;27;20089;-71
2023/10/31 06:21:38;;;;;;;5.88;4.85;;;;;;;12.61;71.91;99962.84;5128187;27;20053;-66
2023/10/31 06:24:09;;;;;;;6.68;5.18;;;;;;;12.59;72.35;99963.09;5121366;27;20065;-71
2023/10/31 06:26:37;;;;;;;6.55;5.13;;;;;;;12.60;72.02;99969.31;5121673;27;20047;-71
2023/10/31 06:29:05;;;;;;;8.90;5.45;;;;;;;12.58;72.19;99979.53;5128755;27;20048;-72
2023/10/31 06:31:52;;;;;;;6.35;5.18;;;;;;;12.56;71.90;99987.88;5127883;27;20134;-68
2023/10/31 06:34:20;;;;;;;7.80;5.50;;;;;;;12.57;72.00;99980.59;5124869;27;20040;-71
2023/10/31 06:36:48;;;;;;;6.90;5.18;;;;;;;12.66;72.22;99982.56;5117721;27;20039;-70
2023/10/31 06:39:17;;;;;;;7.32;6.05;;;;;;;12.61;72.23;99981.72;5121322;27;20097;-70
2023/10/31 06:41:45;;;;;;;7.38;5.70;;;;;;;12.60;71.95;99978.19;5119458;27;20055;-71
2023/10/31 06:44:13;;;;;;;5.75;5.05;;;;;;;12.59;71.90;99979.28;5118367;27;20047;-70
2023/10/31 06:46:41;;;;;;;9.48;5.35;;;;;;;12.59;71.90;99981.16;5117601;27;20107;-71
2023/10/31 06:49:08;;;;;;;6.35;4.90;;;;;;;12.58;71.69;99991.13;5119512;27;20047;-68
2023/10/31 06:51:36;;;;;;;6.45;5.15;;;;;;;12.57;72.03;99989.50;5115840;27;20433;-68
2023/10/31 06:54:04;;;;;;;6.50;5.38;;;;;;;12.52;72.16;99983.25;5117144;27;20040;-68
2023/10/31 06:56:34;;;;;;;7.45;5.90;;;;;;;12.51;72.03;99989.72;5119889;27;20047;-69
2023/10/31 06:59:02;;;;;;;7.07;5.70;;;;;;;12.53;72.23;99999.16;4762083;27;10000562;-69
2023/10/31 07:01:30;;;;;;;7.97;5.28;;;;;;;12.51;72.12;99995.91;5114214;27;20050;-68
2023/10/31 07:03:57;;;;;;;6.00;4.68;;;;;;;12.53;71.82;99996.47;5113347;27;20079;-69
2023/10/31 07:06:26;;;;;;;5.22;4.45;;;;;;;12.53;72.02;100004.56;5113396;27;20055;-69
2023/10/31 07:08:54;;;;;;;9.70;5.10;;;;;;;12.51;71.97;100006.69;5113890;27;20064;-68
2023/10/31 07:11:21;;;;;;;5.63;4.18;;;;;;;12.51;71.96;100008.56;5121542;27;20055;-68
2023/10/31 07:13:51;;;;;;;6.43;4.55;;;;;;;12.54;71.95;100013.44;5115084;27;20078;-68
2023/10/31 07:16:19;;;;;;;8.43;4.78;;;;;;;12.53;72.17;100006.44;5112892;28;20195;-68
2023/10/31 07:18:46;;;;;;;5.63;4.20;;;;;;;12.50;71.61;100013.16;5115192;27;20052;-68
2023/10/31 07:21:14;;;;;;;4.07;3.63;;;;;;;12.51;71.87;100008.56;5113289;27;20063;-67
2023/10/31 07:23:44;;;;;;;5.70;3.80;;;;;;;12.52;71.97;100018.28;5120286;27;20040;-68
2023/10/31 07:26:11;;;;;;;5.55;3.97;;;;;;;12.51;72.14;100022.03;5120762;28;20039;-67
2023/10/31 07:28:39;;;;;;;5.60;4.07;;;;;;;12.51;71.64;100019.34;5123938;27;20070;-67
2023/10/31 07:31:08;;;;;;;4.25;3.22;;;;;;;12.51;71.83;100028.25;5119543;27;20453;-68
2023/10/31 07:33:36;;;;;;;5.60;3.80;;;;;;;12.53;71.96;100030.69;5124115;27;20100;-68
2023/10/31 07:36:05;;;;;;;5.18;3.63;;;;;;;12.52;71.90;100031.75;5124434;27;20050;-68
2023/10/31 07:38:34;;;;;;;5.25;3.67;;;;;;;12.51;71.83;100044.41;5123089;27;20046;-67
2023/10/31 07:41:02;;;;;;;9.35;3.92;;;;;;;12.52;71.83;100047.94;5124835;27;20105;-68
2023/10/31 07:43:30;;;;;;;7.28;3.58;;;;;;;12.51;71.78;100049.00;5119234;27;20077;-67
2023/10/31 07:45:58;;;;;;;5.35;4.03;;;;;;;12.49;71.82;100046.56;5123378;28;20092;-66
2023/10/31 07:48:27;;;;;;;5.15;3.63;;;;;;;12.50;72.38;100044.69;5121898;27;20070;-67
2023/10/31 07:50:54;;;;;;;5.60;3.67;;;;;;;12.50;72.13;100041.97;5121350;27;20104;-67
2023/10/31 07:53:22;;;;;;;5.90;4.45;;;;;;;12.50;72.36;100050.88;5117256;27;20043;-67
2023/10/31 07:55:50;;;;;;;8.07;3.80;;;;;;;12.43;72.30;100038.69;5122491;27;20054;-66
2023/10/31 07:58:18;;;;;;;5.95;4.70;;;;;;;12.49;72.13;100040.34;5121017;27;20073;-66
2023/10/31 08:00:46;;;;;;;6.18;4.60;;;;;;;12.49;71.95;100046.56;5123793;27;20062;-67
2023/10/31 08:03:14;;;;;;;9.45;4.97;;;;;;;12.50;72.15;100050.06;5120797;27;20126;-66
2023/10/31 08:05:44;;;;;;;5.35;4.10;;;;;;;12.50;72.35;100060.84;5124035;27;20039;-66
2023/10/31 08:08:11;;;;;;;5.07;4.13;;;;;;;12.50;72.43;100061.66;5126040;27;20047;-66
2023/10/31 08:10:39;;;;;;;7.47;5.22;;;;;;;12.52;72.12;100059.53;5121203;27;20044;-67
2023/10/31 08:13:07;;;;;;;7.40;5.68;;;;;;;12.51;72.14;100057.09;5118562;28;20093;-67
2023/10/31 08:15:35;;;;;;;8.52;6.07;;;;;;;12.52;72.04;100062.22;5122823;28;20050;-67
2023/10/31 08:18:03;;;;;;;8.23;5.53;;;;;;;12.52;72.16;100062.22;5123462;27;20048;-67
2023/10/31 08:20:33;;;;;;;8.82;6.35;;;;;;;12.52;72.09;100061.41;5122061;28;20052;-67
2023/10/31 08:23:02;;;;;;;7.18;5.85;;;;;;;12.51;72.21;100071.38;5118098;27;20508;-67
2023/10/31 08:25:30;;;;;;;9.40;6.38;;;;;;;12.53;72.34;100076.50;5121967;27;20103;-67
2023/10/31 08:27:58;;;;;;;9.52;5.68;;;;;;;12.52;72.14;100070.31;5122296;28;20051;-66
2023/10/31 08:30:26;;;;;;;8.82;6.40;;;;;;;12.52;72.23;100072.19;5119968;27;20043;-67
2023/10/31 08:32:54;;;;;;;9.50;6.47;;;;;;;12.51;72.25;100070.56;5124181;27;20052;-67
2023/10/31 08:35:24;;;;;;;8.73;6.68;;;;;;;12.52;72.04;100074.88;5121025;28;20036;-67
2023/10/31 08:37:52;;;;;;;7.88;6.78;;;;;;;12.50;71.91;100064.34;5118018;27;20115;-67
2023/10/31 08:40:21;;;;;;;7.75;5.78;;;;;;;12.52;71.82;100075.69;5119530;28;20103;-67
2023/10/31 08:42:49;;;;;;;8.93;5.95;;;;;;;12.52;72.38;100078.41;5122051;27;20105;-68
2023/10/31 08:45:17;;;;;;;7.97;6.47;;;;;;;12.52;72.38;100078.41;5122305;28;20065;-68
2023/10/31 08:47:45;;;;;;;9.43;6.30;;;;;;;12.54;72.31;100088.91;5121454;27;20085;-68
2023/10/31 08:50:13;;;;;;;7.40;5.82;;;;;;;12.47;72.21;100094.50;5117667;27;20043;-66
2023/10/31 08:52:41;;;;;;;9.82;6.85;;;;;;;12.47;72.27;100101.78;5119598;27;20047;-67
2023/10/31 08:55:09;;;;;;;9.85;6.38;;;;;;;12.48;72.10;100101.53;5122131;27;20056;-67
2023/10/31 08:57:38;;;;;;;12.23;6.43;;;;;;;12.45;72.55;100104.72;5123722;27;20051;-67
2023/10/31 09:00:07;;;;;;;9.82;6.47;;;;;;;12.48;72.03;100109.63;5121455;27;20130;-66
2023/10/31 09:02:35;;;;;;;8.25;5.88;;;;;;;12.48;72.37;100115.00;5120653;28;20411;-67
2023/10/31 09:05:04;;;;;;;10.18;6.93;;;;;;;12.47;72.35;100118.75;5122037;27;20049;-67
2023/10/31 09:07:32;;;;;;;7.70;5.85;;;;;;;12.53;72.08;100117.75;5122122;28;20048;-67
2023/10/31 09:09:59;;;;;;;10.65;5.85;;;;;;;12.51;72.52;100119.06;5118968;28;20126;-67
2023/10/31 09:12:27;;;;;;;8.48;6.18;;;;;;;12.49;72.51;100127.41;5122562;27;20047;-66
2023/10/31 09:15:00;;;;;;;7.97;5.78;;;;;;;12.48;72.26;100124.97;5119275;27;20075;-66
2023/10/31 09:17:28;;;;;;;9.57;5.88;;;;;;;12.48;72.44;100138.44;5118214;28;20139;-66
2023/10/31 09:19:56;;;;;;;10.80;5.95;;;;;;;12.47;72.14;100139.50;5116711;27;20124;-66
2023/10/31 09:22:27;;;;;;;12.35;6.20;;;;;;;12.46;72.71;100148.66;5119088;28;20044;-66
2023/10/31 09:24:55;;;;;;;8.32;6.55;;;;;;;12.47;72.33;100158.38;5121979;27;20111;-67
2023/10/31 09:27:23;;;;;;;7.85;5.80;;;;;;;12.48;72.37;100157.31;5119031;27;21438;-66
2023/10/31 09:29:51;;;;;;;9.65;6.30;;;;;;;12.51;72.31;100164.91;5116931;27;20111;-66
2023/10/31 09:32:20;;;;;;;9.18;5.35;;;;;;;12.51;72.49;100172.97;5119747;28;20048;-67
2023/10/31 09:34:49;;;;;;;8.45;5.90;;;;;;;12.52;72.28;100171.91;5117815;28;20036;-67
2023/10/31 09:37:16;;;;;;;8.32;5.53;;;;;;;12.51;71.98;100171.09;5120478;27;20047;-67
2023/10/31 09:39:44;;;;;;;7.95;5.85;;;;;;;12.49;72.43;100165.16;5116270;28;20048;-67
2023/10/31 09:42:12;;;;;;;9.50;5.78;;;;;;;12.54;72.09;100180.56;5118184;28;20093;-67
2023/10/31 09:44:40;;;;;;;7.78;5.25;;;;;;;12.53;72.16;100182.44;5122192;28;20051;-66
2023/10/31 09:47:08;;;;;;;7.03;5.50;;;;;;;12.53;72.12;100187.03;5118241;28;20108;-66
2023/10/31 09:49:38;;;;;;;8.10;6.38;;;;;;;12.53;72.46;100185.13;5121679;28;20043;-66
2023/10/31 09:52:07;;;;;;;7.20;5.05;;;;;;;12.58;72.19;100189.78;5123340;27;20051;-67
2023/10/31 09:54:35;;;;;;;9.57;5.60;;;;;;;12.75;72.06;100193.22;5127550;27;20063;-68
2023/10/31 09:57:04;;;;;;;9.02;5.85;;;;;;;12.85;71.29;100198.72;5126130;27;20157;-68
2023/10/31 09:59:32;;;;;;;9.30;5.95;;;;;;;13.00;71.03;100192.69;5126954;27;20044;-67
2023/10/31 10:02:00;;;;;;;6.80;5.18;;;;;;;13.19;70.40;100202.09;5128015;27;20039;-68
2023/10/31 10:04:29;;;;;;;7.72;5.75;;;;;;;13.39;69.56;100203.34;5126917;27;20069;-68
2023/10/31 10:07:01;;;;;;;8.50;4.88;;;;;;;13.54;69.16;100192.69;5127447;27;20138;-68
2023/10/31 10:09:30;;;;;;;6.97;4.90;;;;;;;13.72;68.14;100191.50;5125481;27;20545;-68
2023/10/31 10:12:00;;;;;;;5.72;4.47;;;;;;;13.97;67.62;100203.25;5127048;27;20039;-67
2023/10/31 10:14:31;;;;;;;7.88;4.90;;;;;;;14.13;66.87;100201.47;5127506;27;20070;-67
2023/10/31 10:16:59;;;;;;;8.63;4.82;;;;;;;14.19;66.62;100211.25;5126062;27;20039;-66
2023/10/31 10:19:28;;;;;;;8.38;5.03;;;;;;;14.14;66.69;100213.91;5125443;27;20427;-67
2023/10/31 10:21:57;;;;;;;6.60;4.45;;;;;;;13.98;67.20;100217.59;5124661;27;20111;-67
2023/10/31 10:24:27;;;;;;;8.70;5.00;;;;;;;13.86;67.58;100220.50;5126432;27;20040;-67
2023/10/31 10:26:55;;;;;;;8.90;4.90;;;;;;;13.68;68.18;100229.00;5126510;27;20074;-67
2023/10/31 10:29:22;;;;;;;7.18;4.82;;;;;;;13.62;68.54;100236.25;5126275;27;20047;-67
2023/10/31 10:31:50;;;;;;;7.93;4.38;;;;;;;13.50;69.22;100232.88;5128571;27;20075;-66
2023/10/31 10:34:18;;;;;;;6.85;4.82;;;;;;;13.42;69.38;100236.06;5123425;27;20057;-69
2023/10/31 10:36:48;;;;;;;9.07;5.18;;;;;;;13.39;69.83;100246.53;5124369;27;20047;-68
2023/10/31 10:39:21;;;;;;;7.82;4.55;;;;;;;13.32;70.07;100246.75;5126256;27;20059;-68
2023/10/31 10:41:54;;;;;;;7.68;4.97;;;;;;;13.24;70.03;100250.72;5124911;27;20058;-68
2023/10/31 10:44:32;;;;;;;6.85;4.53;;;;;;;13.20;70.58;100246.09;5133227;27;20069;-68
2023/10/31 10:47:03;;;;;;;6.72;3.83;;;;;;;13.16;70.41;100259.25;5125425;27;20063;-68
2023/10/31 10:49:34;;;;;;;5.65;4.80;;;;;;;13.10;70.95;100252.16;5126681;27;20480;-68
2023/10/31 10:52:11;;;;;;;7.25;4.38;;;;;;;13.11;70.91;100259.19;5125978;27;20108;-68
2023/10/31 10:54:47;;;;;;;7.93;4.80;;;;;;;13.09;70.87;100266.72;5129860;27;20050;-67
2023/10/31 10:57:25;;;;;;;7.13;5.30;;;;;;;13.08;70.76;100266.97;5127134;27;20054;-67
2023/10/31 10:59:56;;;;;;;7.45;4.80;;;;;;;13.03;71.27;100260.44;5129777;27;20051;-66
2023/10/31 11:02:26;;;;;;;9.57;4.70;;;;;;;13.00;71.14;100265.53;5121620;27;20058;-68
2023/10/31 11:04:56;;;;;;;9.90;4.70;;;;;;;12.98;71.08;100259.56;5125608;27;20051;-67
2023/10/31 11:07:25;;;;;;;6.68;5.00;;;;;;;12.87;71.29;100241.63;5122115;27;20142;-67
2023/10/31 11:09:53;;;;;;;6.15;4.45;;;;;;;12.96;71.55;100254.41;5121630;27;20047;-68
2023/10/31 11:12:22;;;;;;;9.55;5.43;;;;;;;12.99;71.52;100264.69;5125216;27;20039;-67
2023/10/31 11:14:51;;;;;;;8.45;4.90;;;;;;;12.97;71.68;100260.63;5124158;27;20043;-67
2023/10/31 11:17:25;;;;;;;7.72;4.72;;;;;;;12.97;71.44;100266.03;5123683;27;20044;-67
2023/10/31 11:19:55;;;;;;;4.65;4.00;;;;;;;12.97;71.73;100271.41;5122105;27;20043;-67
2023/10/31 11:22:23;;;;;;;7.00;4.53;;;;;;;12.95;71.37;100273.56;5121000;28;20067;-67
2023/10/31 11:24:52;;;;;;;8.27;4.68;;;;;;;12.95;71.63;100265.47;5117661;28;20077;-68
2023/10/31 11:27:22;;;;;;;6.68;4.38;;;;;;;12.94;71.88;100272.72;5123456;27;20040;-66
2023/10/31 11:29:49;;;;;;;7.50;4.20;;;;;;;12.93;71.97;100273.81;5124835;27;20043;-69
2023/10/31 11:32:17;;;;;;;4.97;3.72;;;;;;;12.93;71.96;100273.81;5125696;27;20047;-69
2023/10/31 11:34:48;;;;;;;7.30;3.78;;;;;;;12.96;71.88;100275.19;5122917;27;20083;-68